sensor_id;sensor_type;location;lat;lon;timestamp;temperature;humidity
23471;DHT22;11908;50.806;4.424;2023-04-01T00:00:07;10.00;99.90
23471;DHT22;11908;50.806;4.424;2023-04-01T00:02:33;9.90;99.90
23471;DHT22;11908;50.806;4.424;2023-04-01T00:04:59;10.00;99.90
23471;DHT22;11908;50.806;4.424;2023-04-01T00:07:25;10.00;99.90
23471;DHT22;11908;50.806;4.424;2023-04-01T00:09:51;10.00;99.90
23471;DHT22;11908;50.806;4.424;2023-04-01T00:12:16;10.10;99.90
23471;DHT22;11908;50.806;4.424;2023-04-01T00:14:42;10.10;99.90
23471;DHT22;11908;50.806;4.424;2023-04-01T00:17:08;10.10;99.90
23471;DHT22;11908;50.806;4.424;2023-04-01T00:19:33;10.10;99.90
23471;DHT22;11908;50.806;4.424;2023-04-01T00:21:59;10.00;99.90
23471;DHT22;11908;50.806;4.424;2023-04-01T00:24:25;10.00;99.90
23471;DHT22;11908;50.806;4.424;2023-04-01T00:26:51;10.00;99.90
23471;DHT22;11908;50.806;4.424;2023-04-01T00:29:16;10.00;99.90
23471;DHT22;11908;50.806;4.424;2023-04-01T00:31:42;10.00;99.90
23471;DHT22;11908;50.806;4.424;2023-04-01T00:34:08;10.00;99.90
23471;DHT22;11908;50.806;4.424;2023-04-01T00:36:33;10.10;99.90
23471;DHT22;11908;50.806;4.424;2023-04-01T00:38:59;10.10;99.90
23471;DHT22;11908;50.806;4.424;2023-04-01T00:41:25;10.00;99.90
23471;DHT22;11908;50.806;4.424;2023-04-01T00:43:52;10.00;99.90
23471;DHT22;11908;50.806;4.424;2023-04-01T00:46:18;10.10;99.90
23471;DHT22;11908;50.806;4.424;2023-04-01T00:48:48;10.10;99.90
23471;DHT22;11908;50.806;4.424;2023-04-01T00:51:18;10.10;99.90
23471;DHT22;11908;50.806;4.424;2023-04-01T00:53:48;10.10;99.90
23471;DHT22;11908;50.806;4.424;2023-04-01T00:56:30;10.10;99.90
23471;DHT22;11908;50.806;4.424;2023-04-01T00:59:01;10.10;99.90
23471;DHT22;11908;50.806;4.424;2023-04-01T01:01:29;10.00;99.90
23471;DHT22;11908;50.806;4.424;2023-04-01T01:03:55;10.10;99.90
23471;DHT22;11908;50.806;4.424;2023-04-01T01:12:11;10.10;99.90
23471;DHT22;11908;50.806;4.424;2023-04-01T01:15:16;10.10;99.90
23471;DHT22;11908;50.806;4.424;2023-04-01T01:20:40;10.20;99.90
23471;DHT22;11908;50.806;4.424;2023-04-01T01:31:48;10.10;99.90
23471;DHT22;11908;50.806;4.424;2023-04-01T01:36:59;10.10;99.90
23471;DHT22;11908;50.806;4.424;2023-04-01T01:39:29;10.10;99.90
23471;DHT22;11908;50.806;4.424;2023-04-01T01:41:57;10.10;99.90
23471;DHT22;11908;50.806;4.424;2023-04-01T01:44:26;10.10;99.90
23471;DHT22;11908;50.806;4.424;2023-04-01T01:46:52;10.10;99.90
23471;DHT22;11908;50.806;4.424;2023-04-01T01:49:18;10.10;99.90
23471;DHT22;11908;50.806;4.424;2023-04-01T01:51:45;10.10;99.90
23471;DHT22;11908;50.806;4.424;2023-04-01T01:54:18;10.10;99.90
23471;DHT22;11908;50.806;4.424;2023-04-01T01:56:47;10.00;99.90
23471;DHT22;11908;50.806;4.424;2023-04-01T01:59:15;10.00;99.90
23471;DHT22;11908;50.806;4.424;2023-04-01T02:01:45;10.00;99.90
23471;DHT22;11908;50.806;4.424;2023-04-01T02:04:13;10.00;99.90
23471;DHT22;11908;50.806;4.424;2023-04-01T02:06:45;10.10;99.90
23471;DHT22;11908;50.806;4.424;2023-04-01T02:09:12;10.10;99.90
23471;DHT22;11908;50.806;4.424;2023-04-01T02:11:41;10.10;99.90
23471;DHT22;11908;50.806;4.424;2023-04-01T02:14:15;10.10;99.90
23471;DHT22;11908;50.806;4.424;2023-04-01T02:16:58;10.20;99.90
23471;DHT22;11908;50.806;4.424;2023-04-01T02:19:29;10.20;99.90
23471;DHT22;11908;50.806;4.424;2023-04-01T02:22:03;10.30;99.90
23471;DHT22;11908;50.806;4.424;2023-04-01T02:24:33;10.40;99.90
23471;DHT22;11908;50.806;4.424;2023-04-01T02:27:00;10.30;99.90
23471;DHT22;11908;50.806;4.424;2023-04-01T02:29:27;10.20;99.90
23471;DHT22;11908;50.806;4.424;2023-04-01T02:31:53;10.20;99.90
23471;DHT22;11908;50.806;4.424;2023-04-01T02:34:21;10.20;99.90
23471;DHT22;11908;50.806;4.424;2023-04-01T02:36:49;10.10;99.90
23471;DHT22;11908;50.806;4.424;2023-04-01T02:39:15;10.10;99.90
23471;DHT22;11908;50.806;4.424;2023-04-01T02:41:42;10.00;99.90
23471;DHT22;11908;50.806;4.424;2023-04-01T02:44:09;10.00;99.90
23471;DHT22;11908;50.806;4.424;2023-04-01T02:46:36;10.00;99.90
23471;DHT22;11908;50.806;4.424;2023-04-01T02:49:02;10.00;99.90
23471;DHT22;11908;50.806;4.424;2023-04-01T02:51:27;10.00;99.90
23471;DHT22;11908;50.806;4.424;2023-04-01T02:53:53;10.00;99.90
23471;DHT22;11908;50.806;4.424;2023-04-01T02:56:19;10.00;99.90
23471;DHT22;11908;50.806;4.424;2023-04-01T02:58:45;10.00;99.90
23471;DHT22;11908;50.806;4.424;2023-04-01T03:01:11;9.90;99.90
23471;DHT22;11908;50.806;4.424;2023-04-01T03:03:37;9.90;99.90
23471;DHT22;11908;50.806;4.424;2023-04-01T03:06:07;9.90;99.90
23471;DHT22;11908;50.806;4.424;2023-04-01T03:08:33;10.00;99.90
23471;DHT22;11908;50.806;4.424;2023-04-01T03:10:59;10.00;99.90
23471;DHT22;11908;50.806;4.424;2023-04-01T03:13:25;10.00;99.90
23471;DHT22;11908;50.806;4.424;2023-04-01T03:15:51;9.90;99.90
23471;DHT22;11908;50.806;4.424;2023-04-01T03:18:17;10.00;99.90
23471;DHT22;11908;50.806;4.424;2023-04-01T03:20:42;10.00;99.90
23471;DHT22;11908;50.806;4.424;2023-04-01T03:23:08;9.90;99.90
23471;DHT22;11908;50.806;4.424;2023-04-01T03:25:34;10.00;99.90
23471;DHT22;11908;50.806;4.424;2023-04-01T03:28:00;9.90;99.90
23471;DHT22;11908;50.806;4.424;2023-04-01T03:30:26;10.00;99.90
23471;DHT22;11908;50.806;4.424;2023-04-01T03:32:52;10.00;99.90
23471;DHT22;11908;50.806;4.424;2023-04-01T03:35:18;10.00;99.90
23471;DHT22;11908;50.806;4.424;2023-04-01T03:37:44;10.00;99.90
23471;DHT22;11908;50.806;4.424;2023-04-01T03:40:10;9.90;99.90
23471;DHT22;11908;50.806;4.424;2023-04-01T03:42:36;9.80;99.90
23471;DHT22;11908;50.806;4.424;2023-04-01T03:45:03;9.80;99.90
23471;DHT22;11908;50.806;4.424;2023-04-01T03:47:29;9.90;99.90
23471;DHT22;11908;50.806;4.424;2023-04-01T03:49:55;9.90;99.90
23471;DHT22;11908;50.806;4.424;2023-04-01T03:52:21;9.90;99.90
23471;DHT22;11908;50.806;4.424;2023-04-01T03:54:46;9.90;99.90
23471;DHT22;11908;50.806;4.424;2023-04-01T03:57:12;9.90;99.90
23471;DHT22;11908;50.806;4.424;2023-04-01T03:59:38;9.90;99.90
23471;DHT22;11908;50.806;4.424;2023-04-01T04:02:03;9.90;99.90
23471;DHT22;11908;50.806;4.424;2023-04-01T04:04:30;9.90;99.90
23471;DHT22;11908;50.806;4.424;2023-04-01T04:06:56;9.90;99.90
23471;DHT22;11908;50.806;4.424;2023-04-01T04:09:22;9.90;99.90
23471;DHT22;11908;50.806;4.424;2023-04-01T04:11:48;9.90;99.90
23471;DHT22;11908;50.806;4.424;2023-04-01T04:14:14;9.90;99.90
23471;DHT22;11908;50.806;4.424;2023-04-01T04:16:40;9.90;99.90
23471;DHT22;11908;50.806;4.424;2023-04-01T04:19:06;10.00;99.90
23471;DHT22;11908;50.806;4.424;2023-04-01T04:21:31;9.90;99.90
23471;DHT22;11908;50.806;4.424;2023-04-01T04:23:59;10.00;99.90
23471;DHT22;11908;50.806;4.424;2023-04-01T04:26:26;9.90;99.90
23471;DHT22;11908;50.806;4.424;2023-04-01T04:28:53;9.90;99.90
23471;DHT22;11908;50.806;4.424;2023-04-01T04:31:20;9.90;99.90
23471;DHT22;11908;50.806;4.424;2023-04-01T04:33:46;9.90;99.90
23471;DHT22;11908;50.806;4.424;2023-04-01T04:36:12;9.90;99.90
23471;DHT22;11908;50.806;4.424;2023-04-01T04:38:38;9.80;99.90
23471;DHT22;11908;50.806;4.424;2023-04-01T04:41:11;9.90;99.90
23471;DHT22;11908;50.806;4.424;2023-04-01T04:43:38;9.80;99.90
23471;DHT22;11908;50.806;4.424;2023-04-01T04:46:09;9.80;99.90
23471;DHT22;11908;50.806;4.424;2023-04-01T04:48:35;9.80;99.90
23471;DHT22;11908;50.806;4.424;2023-04-01T04:51:01;9.80;99.90
23471;DHT22;11908;50.806;4.424;2023-04-01T04:53:26;9.80;99.90
23471;DHT22;11908;50.806;4.424;2023-04-01T04:55:52;9.80;99.90
23471;DHT22;11908;50.806;4.424;2023-04-01T04:58:18;9.90;99.90
23471;DHT22;11908;50.806;4.424;2023-04-01T05:00:44;9.80;99.90
23471;DHT22;11908;50.806;4.424;2023-04-01T05:03:11;9.80;99.90
23471;DHT22;11908;50.806;4.424;2023-04-01T05:05:37;9.80;99.90
23471;DHT22;11908;50.806;4.424;2023-04-01T05:08:03;9.80;99.90
23471;DHT22;11908;50.806;4.424;2023-04-01T05:10:29;9.80;99.90
23471;DHT22;11908;50.806;4.424;2023-04-01T05:12:56;9.90;99.90
23471;DHT22;11908;50.806;4.424;2023-04-01T05:15:22;9.90;99.90
23471;DHT22;11908;50.806;4.424;2023-04-01T05:17:47;9.80;99.90
23471;DHT22;11908;50.806;4.424;2023-04-01T05:20:13;9.80;99.90
23471;DHT22;11908;50.806;4.424;2023-04-01T05:22:40;9.80;99.90
23471;DHT22;11908;50.806;4.424;2023-04-01T05:25:06;9.80;99.90
23471;DHT22;11908;50.806;4.424;2023-04-01T05:27:32;9.80;99.90
23471;DHT22;11908;50.806;4.424;2023-04-01T05:29:58;9.80;99.90
23471;DHT22;11908;50.806;4.424;2023-04-01T05:32:23;9.80;99.90
23471;DHT22;11908;50.806;4.424;2023-04-01T05:34:52;9.80;99.90
23471;DHT22;11908;50.806;4.424;2023-04-01T05:37:19;9.80;99.90
23471;DHT22;11908;50.806;4.424;2023-04-01T05:39:44;9.80;99.90
23471;DHT22;11908;50.806;4.424;2023-04-01T05:42:10;9.80;99.90
23471;DHT22;11908;50.806;4.424;2023-04-01T05:44:36;9.80;99.90
23471;DHT22;11908;50.806;4.424;2023-04-01T05:47:03;9.80;99.90
23471;DHT22;11908;50.806;4.424;2023-04-01T05:49:29;9.90;99.90
23471;DHT22;11908;50.806;4.424;2023-04-01T05:51:55;9.90;99.90
23471;DHT22;11908;50.806;4.424;2023-04-01T05:54:20;9.80;99.90
23471;DHT22;11908;50.806;4.424;2023-04-01T05:56:46;9.80;99.90
23471;DHT22;11908;50.806;4.424;2023-04-01T05:59:12;9.80;99.90
23471;DHT22;11908;50.806;4.424;2023-04-01T06:01:39;9.80;99.90
23471;DHT22;11908;50.806;4.424;2023-04-01T06:04:05;9.80;99.90
23471;DHT22;11908;50.806;4.424;2023-04-01T06:06:31;9.80;99.90
23471;DHT22;11908;50.806;4.424;2023-04-01T06:09:07;9.70;99.90
23471;DHT22;11908;50.806;4.424;2023-04-01T06:11:56;9.80;99.90
23471;DHT22;11908;50.806;4.424;2023-04-01T06:17:28;9.80;99.90
23471;DHT22;11908;50.806;4.424;2023-04-01T06:23:30;9.90;99.90
23471;DHT22;11908;50.806;4.424;2023-04-01T06:33:06;9.80;99.90
23471;DHT22;11908;50.806;4.424;2023-04-01T06:35:35;9.80;99.90
23471;DHT22;11908;50.806;4.424;2023-04-01T06:55:16;9.80;99.90
23471;DHT22;11908;50.806;4.424;2023-04-01T06:57:48;9.80;99.90
23471;DHT22;11908;50.806;4.424;2023-04-01T07:00:28;9.80;99.90
23471;DHT22;11908;50.806;4.424;2023-04-01T07:05:32;9.90;99.90
23471;DHT22;11908;50.806;4.424;2023-04-01T07:08:01;9.80;99.90
23471;DHT22;11908;50.806;4.424;2023-04-01T07:10:44;9.80;99.90
23471;DHT22;11908;50.806;4.424;2023-04-01T07:13:34;9.90;99.90
23471;DHT22;11908;50.806;4.424;2023-04-01T07:16:11;9.90;99.90
23471;DHT22;11908;50.806;4.424;2023-04-01T07:21:04;9.90;99.90
23471;DHT22;11908;50.806;4.424;2023-04-01T07:23:41;10.00;99.90
23471;DHT22;11908;50.806;4.424;2023-04-01T07:26:17;10.00;99.90
23471;DHT22;11908;50.806;4.424;2023-04-01T07:28:44;10.00;99.90
23471;DHT22;11908;50.806;4.424;2023-04-01T07:31:19;10.10;99.90
23471;DHT22;11908;50.806;4.424;2023-04-01T07:36:42;10.00;99.90
23471;DHT22;11908;50.806;4.424;2023-04-01T07:47:09;10.20;99.90
23471;DHT22;11908;50.806;4.424;2023-04-01T07:55:29;10.20;99.90
23471;DHT22;11908;50.806;4.424;2023-04-01T08:00:42;10.40;99.90
23471;DHT22;11908;50.806;4.424;2023-04-01T08:11:50;10.50;99.90
23471;DHT22;11908;50.806;4.424;2023-04-01T08:14:43;10.30;99.90
23471;DHT22;11908;50.806;4.424;2023-04-01T08:23:40;10.50;99.90
23471;DHT22;11908;50.806;4.424;2023-04-01T08:25:53;10.60;99.90
23471;DHT22;11908;50.806;4.424;2023-04-01T08:31:46;10.60;99.90
23471;DHT22;11908;50.806;4.424;2023-04-01T08:34:26;10.50;99.90
23471;DHT22;11908;50.806;4.424;2023-04-01T08:37:05;10.60;99.90
23471;DHT22;11908;50.806;4.424;2023-04-01T08:39:39;10.60;99.90
23471;DHT22;11908;50.806;4.424;2023-04-01T08:47:59;10.50;99.90
23471;DHT22;11908;50.806;4.424;2023-04-01T09:13:04;10.60;99.90
23471;DHT22;11908;50.806;4.424;2023-04-01T09:21:54;10.50;99.90
23471;DHT22;11908;50.806;4.424;2023-04-01T09:29:56;10.70;99.90
23471;DHT22;11908;50.806;4.424;2023-04-01T09:33:00;10.70;99.90
23471;DHT22;11908;50.806;4.424;2023-04-01T09:38:21;11.00;99.90
23471;DHT22;11908;50.806;4.424;2023-04-01T09:40:57;11.20;99.90
23471;DHT22;11908;50.806;4.424;2023-04-01T09:46:18;11.00;99.90
23471;DHT22;11908;50.806;4.424;2023-04-01T09:52:02;11.00;99.90
23471;DHT22;11908;50.806;4.424;2023-04-01T10:02:50;11.60;99.90
23471;DHT22;11908;50.806;4.424;2023-04-01T10:17:07;11.30;99.90
23471;DHT22;11908;50.806;4.424;2023-04-01T10:20:00;11.20;99.90
23471;DHT22;11908;50.806;4.424;2023-04-01T10:37:29;12.30;99.90
23471;DHT22;11908;50.806;4.424;2023-04-01T10:46:03;12.00;99.90
23471;DHT22;11908;50.806;4.424;2023-04-01T11:23:18;12.50;99.90
23471;DHT22;11908;50.806;4.424;2023-04-01T11:28:47;12.30;99.90
23471;DHT22;11908;50.806;4.424;2023-04-01T11:34:26;12.00;99.90
23471;DHT22;11908;50.806;4.424;2023-04-01T11:42:15;12.10;99.90
23471;DHT22;11908;50.806;4.424;2023-04-01T11:48:03;12.30;99.90
23471;DHT22;11908;50.806;4.424;2023-04-01T12:01:33;12.20;99.90
23471;DHT22;11908;50.806;4.424;2023-04-01T12:07:24;12.10;99.90
23471;DHT22;11908;50.806;4.424;2023-04-01T12:10:02;11.90;99.90
23471;DHT22;11908;50.806;4.424;2023-04-01T12:12:41;12.00;99.90
23471;DHT22;11908;50.806;4.424;2023-04-01T12:15:36;11.80;99.90
23471;DHT22;11908;50.806;4.424;2023-04-01T12:18:17;11.50;99.90
23471;DHT22;11908;50.806;4.424;2023-04-01T12:34:44;11.60;99.90
23471;DHT22;11908;50.806;4.424;2023-04-01T12:37:24;11.40;99.90
23471;DHT22;11908;50.806;4.424;2023-04-01T12:45:34;11.30;99.90
23471;DHT22;11908;50.806;4.424;2023-04-01T12:53:21;11.10;99.90
23471;DHT22;11908;50.806;4.424;2023-04-01T12:55:51;11.20;99.90
23471;DHT22;11908;50.806;4.424;2023-04-01T12:58:46;11.10;99.90
23471;DHT22;11908;50.806;4.424;2023-04-01T13:01:30;11.10;99.90
23471;DHT22;11908;50.806;4.424;2023-04-01T13:04:31;11.00;99.90
23471;DHT22;11908;50.806;4.424;2023-04-01T13:10:27;11.00;99.90
23471;DHT22;11908;50.806;4.424;2023-04-01T13:13:00;11.10;99.90
23471;DHT22;11908;50.806;4.424;2023-04-01T13:15:35;11.00;99.90
23471;DHT22;11908;50.806;4.424;2023-04-01T13:26:13;11.10;99.90
23471;DHT22;11908;50.806;4.424;2023-04-01T13:29:18;11.10;99.90
23471;DHT22;11908;50.806;4.424;2023-04-01T13:34:29;11.00;99.90
23471;DHT22;11908;50.806;4.424;2023-04-01T13:42:29;11.00;99.90
23471;DHT22;11908;50.806;4.424;2023-04-01T13:45:35;11.00;99.90
23471;DHT22;11908;50.806;4.424;2023-04-01T13:53:55;10.90;99.90
23471;DHT22;11908;50.806;4.424;2023-04-01T14:10:18;11.60;99.90
23471;DHT22;11908;50.806;4.424;2023-04-01T14:15:29;11.90;99.90
23471;DHT22;11908;50.806;4.424;2023-04-01T14:26:30;11.70;99.90
23471;DHT22;11908;50.806;4.424;2023-04-01T14:29:21;11.80;99.90
23471;DHT22;11908;50.806;4.424;2023-04-01T14:32:09;11.70;99.90
23471;DHT22;11908;50.806;4.424;2023-04-01T14:40:22;11.80;99.90
23471;DHT22;11908;50.806;4.424;2023-04-01T14:43:28;11.80;99.90
23471;DHT22;11908;50.806;4.424;2023-04-01T14:49:24;11.60;99.90
23471;DHT22;11908;50.806;4.424;2023-04-01T14:51:42;11.70;99.90
23471;DHT22;11908;50.806;4.424;2023-04-01T14:54:14;11.60;99.90
23471;DHT22;11908;50.806;4.424;2023-04-01T14:57:30;11.60;99.90
23471;DHT22;11908;50.806;4.424;2023-04-01T15:00:17;11.60;99.90
23471;DHT22;11908;50.806;4.424;2023-04-01T15:19:43;11.30;99.90
23471;DHT22;11908;50.806;4.424;2023-04-01T15:39:24;11.10;99.90
23471;DHT22;11908;50.806;4.424;2023-04-01T15:49:54;11.10;99.90
23471;DHT22;11908;50.806;4.424;2023-04-01T15:52:57;11.10;99.90
23471;DHT22;11908;50.806;4.424;2023-04-01T15:55:31;11.10;99.90
23471;DHT22;11908;50.806;4.424;2023-04-01T15:58:44;10.90;99.90
23471;DHT22;11908;50.806;4.424;2023-04-01T16:14:58;10.40;99.90
23471;DHT22;11908;50.806;4.424;2023-04-01T16:20:55;10.40;99.90
23471;DHT22;11908;50.806;4.424;2023-04-01T16:42:28;10.30;99.90
23471;DHT22;11908;50.806;4.424;2023-04-01T16:48:13;10.30;99.90
23471;DHT22;11908;50.806;4.424;2023-04-01T16:51:11;10.20;99.90
23471;DHT22;11908;50.806;4.424;2023-04-01T16:53:49;10.20;99.90
23471;DHT22;11908;50.806;4.424;2023-04-01T16:56:24;10.20;99.90
23471;DHT22;11908;50.806;4.424;2023-04-01T16:59:13;10.20;99.90
23471;DHT22;11908;50.806;4.424;2023-04-01T17:01:53;10.20;99.90
23471;DHT22;11908;50.806;4.424;2023-04-01T17:04:44;10.20;99.90
23471;DHT22;11908;50.806;4.424;2023-04-01T17:10:22;10.10;99.90
23471;DHT22;11908;50.806;4.424;2023-04-01T17:13:18;10.00;99.90
23471;DHT22;11908;50.806;4.424;2023-04-01T17:21:21;10.10;99.90
23471;DHT22;11908;50.806;4.424;2023-04-01T17:24:25;10.10;99.90
23471;DHT22;11908;50.806;4.424;2023-04-01T17:27:01;10.00;99.90
23471;DHT22;11908;50.806;4.424;2023-04-01T17:29:44;10.10;99.90
23471;DHT22;11908;50.806;4.424;2023-04-01T17:32:38;10.10;99.90
23471;DHT22;11908;50.806;4.424;2023-04-01T17:35:16;10.10;99.90
23471;DHT22;11908;50.806;4.424;2023-04-01T17:51:43;10.10;99.90
23471;DHT22;11908;50.806;4.424;2023-04-01T17:54:23;10.10;99.90
23471;DHT22;11908;50.806;4.424;2023-04-01T17:57:23;10.10;99.90
23471;DHT22;11908;50.806;4.424;2023-04-01T18:03:06;10.10;99.90
23471;DHT22;11908;50.806;4.424;2023-04-01T18:09:16;10.00;99.90
23471;DHT22;11908;50.806;4.424;2023-04-01T18:25:39;9.90;99.90
23471;DHT22;11908;50.806;4.424;2023-04-01T18:28:43;9.90;99.90
23471;DHT22;11908;50.806;4.424;2023-04-01T18:31:18;9.80;99.90
23471;DHT22;11908;50.806;4.424;2023-04-01T18:34:02;9.90;99.90
23471;DHT22;11908;50.806;4.424;2023-04-01T18:39:09;9.90;99.90
23471;DHT22;11908;50.806;4.424;2023-04-01T18:44:43;10.00;99.90
23471;DHT22;11908;50.806;4.424;2023-04-01T18:53:31;9.90;99.90
23471;DHT22;11908;50.806;4.424;2023-04-01T18:56:15;9.80;99.90
23471;DHT22;11908;50.806;4.424;2023-04-01T18:59:17;9.80;99.90
23471;DHT22;11908;50.806;4.424;2023-04-01T19:02:04;9.80;99.90
23471;DHT22;11908;50.806;4.424;2023-04-01T19:04:39;9.90;99.90
23471;DHT22;11908;50.806;4.424;2023-04-01T19:07:33;9.80;99.90
23471;DHT22;11908;50.806;4.424;2023-04-01T19:18:18;10.00;99.90
23471;DHT22;11908;50.806;4.424;2023-04-01T19:26:45;9.90;99.90
23471;DHT22;11908;50.806;4.424;2023-04-01T19:40:23;9.90;99.90
23471;DHT22;11908;50.806;4.424;2023-04-01T19:43:49;9.90;99.90
23471;DHT22;11908;50.806;4.424;2023-04-01T19:49:12;9.90;99.90
23471;DHT22;11908;50.806;4.424;2023-04-01T19:56:51;9.80;99.90
23471;DHT22;11908;50.806;4.424;2023-04-01T20:07:31;9.90;99.90
23471;DHT22;11908;50.806;4.424;2023-04-01T20:16:04;9.80;99.90
23471;DHT22;11908;50.806;4.424;2023-04-01T20:23:50;9.80;99.90
23471;DHT22;11908;50.806;4.424;2023-04-01T20:26:22;9.70;99.90
23471;DHT22;11908;50.806;4.424;2023-04-01T20:31:43;9.70;99.90
23471;DHT22;11908;50.806;4.424;2023-04-01T20:39:20;9.80;99.90
23471;DHT22;11908;50.806;4.424;2023-04-01T20:55:26;9.80;99.90
23471;DHT22;11908;50.806;4.424;2023-04-01T21:01:01;9.80;99.90
23471;DHT22;11908;50.806;4.424;2023-04-01T21:04:10;9.80;99.90
23471;DHT22;11908;50.806;4.424;2023-04-01T21:09:26;9.80;99.90
23471;DHT22;11908;50.806;4.424;2023-04-01T21:20:35;9.80;99.90
23471;DHT22;11908;50.806;4.424;2023-04-01T21:26:04;9.70;99.90
23471;DHT22;11908;50.806;4.424;2023-04-01T21:34:07;9.80;99.90
23471;DHT22;11908;50.806;4.424;2023-04-01T21:36:48;9.90;99.90
23471;DHT22;11908;50.806;4.424;2023-04-01T21:42:32;9.90;99.90
23471;DHT22;11908;50.806;4.424;2023-04-01T22:02:20;10.10;99.90
23471;DHT22;11908;50.806;4.424;2023-04-01T22:10:15;10.00;99.90
23471;DHT22;11908;50.806;4.424;2023-04-01T22:16:05;10.10;99.90
23471;DHT22;11908;50.806;4.424;2023-04-01T22:19:20;10.20;99.90
23471;DHT22;11908;50.806;4.424;2023-04-01T22:24:58;10.10;99.90
23471;DHT22;11908;50.806;4.424;2023-04-01T22:29:40;10.10;99.90
23471;DHT22;11908;50.806;4.424;2023-04-01T22:32:18;10.10;99.90
23471;DHT22;11908;50.806;4.424;2023-04-01T22:34:49;10.10;99.90
23471;DHT22;11908;50.806;4.424;2023-04-01T22:37:28;10.20;99.90
23471;DHT22;11908;50.806;4.424;2023-04-01T22:40:34;10.10;99.90
23471;DHT22;11908;50.806;4.424;2023-04-01T22:43:15;10.10;99.90
23471;DHT22;11908;50.806;4.424;2023-04-01T22:48:49;9.90;99.90
23471;DHT22;11908;50.806;4.424;2023-04-01T22:51:24;9.90;99.90
23471;DHT22;11908;50.806;4.424;2023-04-01T22:57:04;9.80;99.90
23471;DHT22;11908;50.806;4.424;2023-04-01T22:59:42;9.80;99.90
23471;DHT22;11908;50.806;4.424;2023-04-01T23:02:47;9.70;99.90
23471;DHT22;11908;50.806;4.424;2023-04-01T23:05:17;9.80;99.90
23471;DHT22;11908;50.806;4.424;2023-04-01T23:10:20;9.60;99.90
23471;DHT22;11908;50.806;4.424;2023-04-01T23:12:48;9.60;99.90
23471;DHT22;11908;50.806;4.424;2023-04-01T23:15:15;9.70;99.90
23471;DHT22;11908;50.806;4.424;2023-04-01T23:18:03;9.70;99.90
23471;DHT22;11908;50.806;4.424;2023-04-01T23:20:33;9.70;99.90
23471;DHT22;11908;50.806;4.424;2023-04-01T23:23:30;9.70;99.90
23471;DHT22;11908;50.806;4.424;2023-04-01T23:28:46;9.70;99.90
23471;DHT22;11908;50.806;4.424;2023-04-01T23:31:29;9.60;99.90
23471;DHT22;11908;50.806;4.424;2023-04-01T23:34:03;9.60;99.90
23471;DHT22;11908;50.806;4.424;2023-04-01T23:36:30;9.60;99.90
23471;DHT22;11908;50.806;4.424;2023-04-01T23:39:05;9.50;99.90
23471;DHT22;11908;50.806;4.424;2023-04-01T23:41:32;9.50;99.90
23471;DHT22;11908;50.806;4.424;2023-04-01T23:46:26;9.50;99.90
23471;DHT22;11908;50.806;4.424;2023-04-01T23:48:54;9.50;99.90
23471;DHT22;11908;50.806;4.424;2023-04-01T23:51:25;9.40;99.90
23471;DHT22;11908;50.806;4.424;2023-04-01T23:56:54;9.40;99.90
23471;DHT22;11908;50.806;4.424;2023-04-01T23:59:31;9.40;99.90
